Aviation Digital Data Service (ADDS)

Output produced by METARs form (0516 UTC 19 February 2019)
found at http://www.aviationweather.gov/metar/data/
 
METAR text: LOWW 190450Z VRB01KT 7000 NSC M01/M02 Q1019 TEMPO 3500 BR
Conditions at: LOWW (VIENNA/SCHWECHAT, AT) observed 0450 UTC 19 February 2019
Temperature: -1.0°C (30°F)
Dewpoint: -2.0°C (28°F) [RH = 93%]
Pressure (altimeter): 30.09 inches Hg (1019.0 mb)
Winds: variable direction winds at 1 MPH (1 knots; 0.5 m/s)
Visibility: 4 miles ( 7 km)
Ceiling: at least 12,000 feet AGL
Clouds: sky clear below 12,000 feet AGL
Weather: no significant weather observed at this time

METAR text: LOWW 190420Z 17002KT 6000 NSC M03/M04 Q1019 BECMG 3500 BR
Conditions at: LOWW (VIENNA/SCHWECHAT, AT) observed 0420 UTC 19 February 2019
Temperature: -3.0°C (27°F)
Dewpoint: -4.0°C (25°F) [RH = 93%]
Pressure (altimeter): 30.09 inches Hg (1019.0 mb)
Winds: from the S (170 degrees) at 2 MPH (2 knots; 1.0 m/s)
Visibility: 4 miles ( 6 km)
Ceiling: at least 12,000 feet AGL
Clouds: sky clear below 12,000 feet AGL
Weather: no significant weather observed at this time

METAR text: LOWW 190350Z 14003KT 6000 NSC M02/M04 Q1019 BECMG 3000 BR
Conditions at: LOWW (VIENNA/SCHWECHAT, AT) observed 0350 UTC 19 February 2019
Temperature: -2.0°C (28°F)
Dewpoint: -4.0°C (25°F) [RH = 86%]
Pressure (altimeter): 30.09 inches Hg (1019.0 mb)
Winds: from the SE (140 degrees) at 3 MPH (3 knots; 1.5 m/s)
Visibility: 4 miles ( 6 km)
Ceiling: at least 12,000 feet AGL
Clouds: sky clear below 12,000 feet AGL
Weather: no significant weather observed at this time

METAR text: LOWW 190320Z VRB02KT 8000 NSC M01/M02 Q1019 BECMG 3000 BR
Conditions at: LOWW (VIENNA/SCHWECHAT, AT) observed 0320 UTC 19 February 2019
Temperature: -1.0°C (30°F)
Dewpoint: -2.0°C (28°F) [RH = 93%]
Pressure (altimeter): 30.09 inches Hg (1019.0 mb)
Winds: variable direction winds at 2 MPH (2 knots; 1.0 m/s)
Visibility: 5 miles ( 8 km)
Ceiling: at least 12,000 feet AGL
Clouds: sky clear below 12,000 feet AGL
Weather: no significant weather observed at this time

METAR text: LOWW 190250Z 28003KT 250V310 CAVOK 00/M02 Q1019 NOSIG
Conditions at: LOWW (VIENNA/SCHWECHAT, AT) observed 0250 UTC 19 February 2019
Temperature: 0.0°C (32°F)
Dewpoint: -2.0°C (28°F) [RH = 86%]
Pressure (altimeter): 30.09 inches Hg (1019.0 mb)
Winds: from the W (280 degrees) at 3 MPH (3 knots; 1.5 m/s)
Visibility: 6 or more miles (10+ km)
Ceiling: ceiling and visibility are OK
Clouds: unknown
Weather: no significant weather observed at this time

METAR text: LOWW 190220Z VRB01KT CAVOK 00/M03 Q1018 BECMG 4000 BR
Conditions at: LOWW (VIENNA/SCHWECHAT, AT) observed 0220 UTC 19 February 2019
Temperature: 0.0°C (32°F)
Dewpoint: -3.0°C (27°F) [RH = 80%]
Pressure (altimeter): 30.06 inches Hg (1018.0 mb)
Winds: variable direction winds at 1 MPH (1 knots; 0.5 m/s)
Visibility: 6 or more miles (10+ km)
Ceiling: ceiling and visibility are OK
Clouds: unknown
Weather: no significant weather observed at this time

METAR text: LOWW 190150Z 12004KT CAVOK 02/M02 Q1018 NOSIG
Conditions at: LOWW (VIENNA/SCHWECHAT, AT) observed 0150 UTC 19 February 2019
Temperature: 2.0°C (36°F)
Dewpoint: -2.0°C (28°F) [RH = 75%]
Pressure (altimeter): 30.06 inches Hg (1018.0 mb)
Winds: from the ESE (120 degrees) at 5 MPH (4 knots; 2.1 m/s)
Visibility: 6 or more miles (10+ km)
Ceiling: ceiling and visibility are OK
Clouds: unknown
Weather: no significant weather observed at this time

METAR text: LOWW 190120Z 15005KT CAVOK 03/M01 Q1018 NOSIG
Conditions at: LOWW (VIENNA/SCHWECHAT, AT) observed 0120 UTC 19 February 2019
Temperature: 3.0°C (37°F)
Dewpoint: -1.0°C (30°F) [RH = 75%]
Pressure (altimeter): 30.06 inches Hg (1018.0 mb)
Winds: from the SSE (150 degrees) at 6 MPH (5 knots; 2.6 m/s)
Visibility: 6 or more miles (10+ km)
Ceiling: ceiling and visibility are OK
Clouds: unknown
Weather: no significant weather observed at this time

METAR text: LOWW 190050Z 16003KT CAVOK 02/M02 Q1019 NOSIG
Conditions at: LOWW (VIENNA/SCHWECHAT, AT) observed 0050 UTC 19 February 2019
Temperature: 2.0°C (36°F)
Dewpoint: -2.0°C (28°F) [RH = 75%]
Pressure (altimeter): 30.09 inches Hg (1019.0 mb)
Winds: from the SSE (160 degrees) at 3 MPH (3 knots; 1.5 m/s)
Visibility: 6 or more miles (10+ km)
Ceiling: ceiling and visibility are OK
Clouds: unknown
Weather: no significant weather observed at this time

METAR text: LOWW 190020Z VRB02KT CAVOK 04/M01 Q1019 NOSIG
Conditions at: LOWW (VIENNA/SCHWECHAT, AT) observed 0020 UTC 19 February 2019
Temperature: 4.0°C (39°F)
Dewpoint: -1.0°C (30°F) [RH = 70%]
Pressure (altimeter): 30.09 inches Hg (1019.0 mb)
Winds: variable direction winds at 2 MPH (2 knots; 1.0 m/s)
Visibility: 6 or more miles (10+ km)
Ceiling: ceiling and visibility are OK
Clouds: unknown
Weather: no significant weather observed at this time

METAR text: LOWW 182350Z 12007KT CAVOK 04/M00 Q1019 NOSIG
Conditions at: LOWW (VIENNA/SCHWECHAT, AT) observed 2350 UTC 18 February 2019
Temperature: 4.0°C (39°F)
Dewpoint: 0.0°C (32°F) [RH = 75%]
Pressure (altimeter): 30.09 inches Hg (1019.0 mb)
Winds: from the ESE (120 degrees) at 8 MPH (7 knots; 3.6 m/s)
Visibility: 6 or more miles (10+ km)
Ceiling: ceiling and visibility are OK
Clouds: unknown
Weather: no significant weather observed at this time

METAR text: LOWW 182320Z 12008KT CAVOK 05/M00 Q1019 NOSIG
Conditions at: LOWW (VIENNA/SCHWECHAT, AT) observed 2320 UTC 18 February 2019
Temperature: 5.0°C (41°F)
Dewpoint: 0.0°C (32°F) [RH = 70%]
Pressure (altimeter): 30.09 inches Hg (1019.0 mb)
Winds: from the ESE (120 degrees) at 9 MPH (8 knots; 4.1 m/s)
Visibility: 6 or more miles (10+ km)
Ceiling: ceiling and visibility are OK
Clouds: unknown
Weather: no significant weather observed at this time

METAR text: LOWW 182250Z VRB04KT CAVOK 05/M00 Q1019 NOSIG
Conditions at: LOWW (VIENNA/SCHWECHAT, AT) observed 2250 UTC 18 February 2019
Temperature: 5.0°C (41°F)
Dewpoint: 0.0°C (32°F) [RH = 70%]
Pressure (altimeter): 30.09 inches Hg (1019.0 mb)
Winds: variable direction winds at 5 MPH (4 knots; 2.1 m/s)
Visibility: 6 or more miles (10+ km)
Ceiling: ceiling and visibility are OK
Clouds: unknown
Weather: no significant weather observed at this time

METAR text: LOWW 182220Z 11004KT CAVOK 05/M00 Q1019 NOSIG
Conditions at: LOWW (VIENNA/SCHWECHAT, AT) observed 2220 UTC 18 February 2019
Temperature: 5.0°C (41°F)
Dewpoint: 0.0°C (32°F) [RH = 70%]
Pressure (altimeter): 30.09 inches Hg (1019.0 mb)
Winds: from the ESE (110 degrees) at 5 MPH (4 knots; 2.1 m/s)
Visibility: 6 or more miles (10+ km)
Ceiling: ceiling and visibility are OK
Clouds: unknown
Weather: no significant weather observed at this time

METAR text: LOWW 182150Z 11005KT 070V150 CAVOK 06/M00 Q1019 NOSIG
Conditions at: LOWW (VIENNA/SCHWECHAT, AT) observed 2150 UTC 18 February 2019
Temperature: 6.0°C (43°F)
Dewpoint: 0.0°C (32°F) [RH = 65%]
Pressure (altimeter): 30.09 inches Hg (1019.0 mb)
Winds: from the ESE (110 degrees) at 6 MPH (5 knots; 2.6 m/s)
Visibility: 6 or more miles (10+ km)
Ceiling: ceiling and visibility are OK
Clouds: unknown
Weather: no significant weather observed at this time

METAR text: LOWW 182120Z 12008KT CAVOK 07/00 Q1019 NOSIG
Conditions at: LOWW (VIENNA/SCHWECHAT, AT) observed 2120 UTC 18 February 2019
Temperature: 7.0°C (45°F)
Dewpoint: 0.0°C (32°F) [RH = 61%]
Pressure (altimeter): 30.09 inches Hg (1019.0 mb)
Winds: from the ESE (120 degrees) at 9 MPH (8 knots; 4.1 m/s)
Visibility: 6 or more miles (10+ km)
Ceiling: ceiling and visibility are OK
Clouds: unknown
Weather: no significant weather observed at this time

METAR text: LOWW 182050Z 12009KT CAVOK 07/00 Q1019 NOSIG
Conditions at: LOWW (VIENNA/SCHWECHAT, AT) observed 2050 UTC 18 February 2019
Temperature: 7.0°C (45°F)
Dewpoint: 0.0°C (32°F) [RH = 61%]
Pressure (altimeter): 30.09 inches Hg (1019.0 mb)
Winds: from the ESE (120 degrees) at 10 MPH (9 knots; 4.6 m/s)
Visibility: 6 or more miles (10+ km)
Ceiling: ceiling and visibility are OK
Clouds: unknown
Weather: no significant weather observed at this time

METAR text: LOWW 182020Z 11009KT CAVOK 07/00 Q1019 NOSIG
Conditions at: LOWW (VIENNA/SCHWECHAT, AT) observed 2020 UTC 18 February 2019
Temperature: 7.0°C (45°F)
Dewpoint: 0.0°C (32°F) [RH = 61%]
Pressure (altimeter): 30.09 inches Hg (1019.0 mb)
Winds: from the ESE (110 degrees) at 10 MPH (9 knots; 4.6 m/s)
Visibility: 6 or more miles (10+ km)
Ceiling: ceiling and visibility are OK
Clouds: unknown
Weather: no significant weather observed at this time

METAR text: LOWW 181950Z 11008KT CAVOK 08/00 Q1020 NOSIG
Conditions at: LOWW (VIENNA/SCHWECHAT, AT) observed 1950 UTC 18 February 2019
Temperature: 8.0°C (46°F)
Dewpoint: 0.0°C (32°F) [RH = 57%]
Pressure (altimeter): 30.12 inches Hg (1020.0 mb)
Winds: from the ESE (110 degrees) at 9 MPH (8 knots; 4.1 m/s)
Visibility: 6 or more miles (10+ km)
Ceiling: ceiling and visibility are OK
Clouds: unknown
Weather: no significant weather observed at this time

METAR text: LOWW 181920Z 12008KT CAVOK 07/01 Q1020 NOSIG
Conditions at: LOWW (VIENNA/SCHWECHAT, AT) observed 1920 UTC 18 February 2019
Temperature: 7.0°C (45°F)
Dewpoint: 1.0°C (34°F) [RH = 66%]
Pressure (altimeter): 30.12 inches Hg (1020.0 mb)
Winds: from the ESE (120 degrees) at 9 MPH (8 knots; 4.1 m/s)
Visibility: 6 or more miles (10+ km)
Ceiling: ceiling and visibility are OK
Clouds: unknown
Weather: no significant weather observed at this time

METAR text: LOWW 181850Z 12007KT CAVOK 08/01 Q1020 NOSIG
Conditions at: LOWW (VIENNA/SCHWECHAT, AT) observed 1850 UTC 18 February 2019
Temperature: 8.0°C (46°F)
Dewpoint: 1.0°C (34°F) [RH = 61%]
Pressure (altimeter): 30.12 inches Hg (1020.0 mb)
Winds: from the ESE (120 degrees) at 8 MPH (7 knots; 3.6 m/s)
Visibility: 6 or more miles (10+ km)
Ceiling: ceiling and visibility are OK
Clouds: unknown
Weather: no significant weather observed at this time

METAR text: LOWW 181820Z 11006KT CAVOK 08/01 Q1020 NOSIG
Conditions at: LOWW (VIENNA/SCHWECHAT, AT) observed 1820 UTC 18 February 2019
Temperature: 8.0°C (46°F)
Dewpoint: 1.0°C (34°F) [RH = 61%]
Pressure (altimeter): 30.12 inches Hg (1020.0 mb)
Winds: from the ESE (110 degrees) at 7 MPH (6 knots; 3.1 m/s)
Visibility: 6 or more miles (10+ km)
Ceiling: ceiling and visibility are OK
Clouds: unknown
Weather: no significant weather observed at this time

METAR text: LOWW 181750Z 11004KT CAVOK 08/01 Q1020 NOSIG
Conditions at: LOWW (VIENNA/SCHWECHAT, AT) observed 1750 UTC 18 February 2019
Temperature: 8.0°C (46°F)
Dewpoint: 1.0°C (34°F) [RH = 61%]
Pressure (altimeter): 30.12 inches Hg (1020.0 mb)
Winds: from the ESE (110 degrees) at 5 MPH (4 knots; 2.1 m/s)
Visibility: 6 or more miles (10+ km)
Ceiling: ceiling and visibility are OK
Clouds: unknown
Weather: no significant weather observed at this time

METAR text: LOWW 181720Z 10003KT 070V130 CAVOK 08/01 Q1020 NOSIG
Conditions at: LOWW (VIENNA/SCHWECHAT, AT) observed 1720 UTC 18 February 2019
Temperature: 8.0°C (46°F)
Dewpoint: 1.0°C (34°F) [RH = 61%]
Pressure (altimeter): 30.12 inches Hg (1020.0 mb)
Winds: from the E (100 degrees) at 3 MPH (3 knots; 1.5 m/s)
Visibility: 6 or more miles (10+ km)
Ceiling: ceiling and visibility are OK
Clouds: unknown
Weather: no significant weather observed at this time

METAR text: LOWW 181650Z 11005KT CAVOK 09/02 Q1020 NOSIG
Conditions at: LOWW (VIENNA/SCHWECHAT, AT) observed 1650 UTC 18 February 2019
Temperature: 9.0°C (48°F)
Dewpoint: 2.0°C (36°F) [RH = 61%]
Pressure (altimeter): 30.12 inches Hg (1020.0 mb)
Winds: from the ESE (110 degrees) at 6 MPH (5 knots; 2.6 m/s)
Visibility: 6 or more miles (10+ km)
Ceiling: ceiling and visibility are OK
Clouds: unknown
Weather: no significant weather observed at this time

METAR text: LOWW 181620Z 11003KT CAVOK 09/02 Q1021 NOSIG
Conditions at: LOWW (VIENNA/SCHWECHAT, AT) observed 1620 UTC 18 February 2019
Temperature: 9.0°C (48°F)
Dewpoint: 2.0°C (36°F) [RH = 61%]
Pressure (altimeter): 30.15 inches Hg (1021.0 mb)
Winds: from the ESE (110 degrees) at 3 MPH (3 knots; 1.5 m/s)
Visibility: 6 or more miles (10+ km)
Ceiling: ceiling and visibility are OK
Clouds: unknown
Weather: no significant weather observed at this time

METAR text: LOWW 181550Z VRB01KT CAVOK 10/02 Q1021 NOSIG
Conditions at: LOWW (VIENNA/SCHWECHAT, AT) observed 1550 UTC 18 February 2019
Temperature: 10.0°C (50°F)
Dewpoint: 2.0°C (36°F) [RH = 57%]
Pressure (altimeter): 30.15 inches Hg (1021.0 mb)
Winds: variable direction winds at 1 MPH (1 knots; 0.5 m/s)
Visibility: 6 or more miles (10+ km)
Ceiling: ceiling and visibility are OK
Clouds: unknown
Weather: no significant weather observed at this time

METAR text: LOWW 181520Z 15005KT CAVOK 10/02 Q1021 NOSIG
Conditions at: LOWW (VIENNA/SCHWECHAT, AT) observed 1520 UTC 18 February 2019
Temperature: 10.0°C (50°F)
Dewpoint: 2.0°C (36°F) [RH = 57%]
Pressure (altimeter): 30.15 inches Hg (1021.0 mb)
Winds: from the SSE (150 degrees) at 6 MPH (5 knots; 2.6 m/s)
Visibility: 6 or more miles (10+ km)
Ceiling: ceiling and visibility are OK
Clouds: unknown
Weather: no significant weather observed at this time

METAR text: LOWW 181450Z 13009KT CAVOK 10/02 Q1021 NOSIG
Conditions at: LOWW (VIENNA/SCHWECHAT, AT) observed 1450 UTC 18 February 2019
Temperature: 10.0°C (50°F)
Dewpoint: 2.0°C (36°F) [RH = 57%]
Pressure (altimeter): 30.15 inches Hg (1021.0 mb)
Winds: from the SE (130 degrees) at 10 MPH (9 knots; 4.6 m/s)
Visibility: 6 or more miles (10+ km)
Ceiling: ceiling and visibility are OK
Clouds: unknown
Weather: no significant weather observed at this time

METAR text: LOWW 181420Z 13009KT CAVOK 11/02 Q1021 NOSIG
Conditions at: LOWW (VIENNA/SCHWECHAT, AT) observed 1420 UTC 18 February 2019
Temperature: 11.0°C (52°F)
Dewpoint: 2.0°C (36°F) [RH = 54%]
Pressure (altimeter): 30.15 inches Hg (1021.0 mb)
Winds: from the SE (130 degrees) at 10 MPH (9 knots; 4.6 m/s)
Visibility: 6 or more miles (10+ km)
Ceiling: ceiling and visibility are OK
Clouds: unknown
Weather: no significant weather observed at this time

METAR text: LOWW 181350Z 13009KT CAVOK 11/02 Q1021 NOSIG
Conditions at: LOWW (VIENNA/SCHWECHAT, AT) observed 1350 UTC 18 February 2019
Temperature: 11.0°C (52°F)
Dewpoint: 2.0°C (36°F) [RH = 54%]
Pressure (altimeter): 30.15 inches Hg (1021.0 mb)
Winds: from the SE (130 degrees) at 10 MPH (9 knots; 4.6 m/s)
Visibility: 6 or more miles (10+ km)
Ceiling: ceiling and visibility are OK
Clouds: unknown
Weather: no significant weather observed at this time

METAR text: LOWW 181320Z 11006KT 080V160 CAVOK 12/02 Q1022 NOSIG
Conditions at: LOWW (VIENNA/SCHWECHAT, AT) observed 1320 UTC 18 February 2019
Temperature: 12.0°C (54°F)
Dewpoint: 2.0°C (36°F) [RH = 50%]
Pressure (altimeter): 30.18 inches Hg (1022.0 mb)
Winds: from the ESE (110 degrees) at 7 MPH (6 knots; 3.1 m/s)
Visibility: 6 or more miles (10+ km)
Ceiling: ceiling and visibility are OK
Clouds: unknown
Weather: no significant weather observed at this time

METAR text: LOWW 181250Z 10006KT 070V130 CAVOK 11/03 Q1022 NOSIG
Conditions at: LOWW (VIENNA/SCHWECHAT, AT) observed 1250 UTC 18 February 2019
Temperature: 11.0°C (52°F)
Dewpoint: 3.0°C (37°F) [RH = 58%]
Pressure (altimeter): 30.18 inches Hg (1022.0 mb)
Winds: from the E (100 degrees) at 7 MPH (6 knots; 3.1 m/s)
Visibility: 6 or more miles (10+ km)
Ceiling: ceiling and visibility are OK
Clouds: unknown
Weather: no significant weather observed at this time

METAR text: LOWW 181220Z 12006KT 070V160 CAVOK 10/03 Q1022 NOSIG
Conditions at: LOWW (VIENNA/SCHWECHAT, AT) observed 1220 UTC 18 February 2019
Temperature: 10.0°C (50°F)
Dewpoint: 3.0°C (37°F) [RH = 62%]
Pressure (altimeter): 30.18 inches Hg (1022.0 mb)
Winds: from the ESE (120 degrees) at 7 MPH (6 knots; 3.1 m/s)
Visibility: 6 or more miles (10+ km)
Ceiling: ceiling and visibility are OK
Clouds: unknown
Weather: no significant weather observed at this time

METAR text: LOWW 181150Z 11007KT 070V140 CAVOK 09/03 Q1023 NOSIG
Conditions at: LOWW (VIENNA/SCHWECHAT, AT) observed 1150 UTC 18 February 2019
Temperature: 9.0°C (48°F)
Dewpoint: 3.0°C (37°F) [RH = 66%]
Pressure (altimeter): 30.21 inches Hg (1023.0 mb)
Winds: from the ESE (110 degrees) at 8 MPH (7 knots; 3.6 m/s)
Visibility: 6 or more miles (10+ km)
Ceiling: ceiling and visibility are OK
Clouds: unknown
Weather: no significant weather observed at this time

METAR text: LOWW 181120Z 13007KT CAVOK 08/02 Q1023 NOSIG
Conditions at: LOWW (VIENNA/SCHWECHAT, AT) observed 1120 UTC 18 February 2019
Temperature: 8.0°C (46°F)
Dewpoint: 2.0°C (36°F) [RH = 66%]
Pressure (altimeter): 30.21 inches Hg (1023.0 mb)
Winds: from the SE (130 degrees) at 8 MPH (7 knots; 3.6 m/s)
Visibility: 6 or more miles (10+ km)
Ceiling: ceiling and visibility are OK
Clouds: unknown
Weather: no significant weather observed at this time

METAR text: LOWW 181050Z 10003KT 040V150 CAVOK 07/02 Q1024 NOSIG
Conditions at: LOWW (VIENNA/SCHWECHAT, AT) observed 1050 UTC 18 February 2019
Temperature: 7.0°C (45°F)
Dewpoint: 2.0°C (36°F) [RH = 70%]
Pressure (altimeter): 30.24 inches Hg (1024.0 mb)
Winds: from the E (100 degrees) at 3 MPH (3 knots; 1.5 m/s)
Visibility: 6 or more miles (10+ km)
Ceiling: ceiling and visibility are OK
Clouds: unknown
Weather: no significant weather observed at this time

METAR text: LOWW 181020Z 07003KT 020V120 CAVOK 06/02 Q1024 NOSIG
Conditions at: LOWW (VIENNA/SCHWECHAT, AT) observed 1020 UTC 18 February 2019
Temperature: 6.0°C (43°F)
Dewpoint: 2.0°C (36°F) [RH = 75%]
Pressure (altimeter): 30.24 inches Hg (1024.0 mb)
Winds: from the ENE (70 degrees) at 3 MPH (3 knots; 1.5 m/s)
Visibility: 6 or more miles (10+ km)
Ceiling: ceiling and visibility are OK
Clouds: unknown
Weather: no significant weather observed at this time

METAR text: LOWW 180950Z 08003KT 020V130 CAVOK 05/01 Q1025 NOSIG
Conditions at: LOWW (VIENNA/SCHWECHAT, AT) observed 0950 UTC 18 February 2019
Temperature: 5.0°C (41°F)
Dewpoint: 1.0°C (34°F) [RH = 75%]
Pressure (altimeter): 30.27 inches Hg (1025.0 mb)
Winds: from the E (80 degrees) at 3 MPH (3 knots; 1.5 m/s)
Visibility: 6 or more miles (10+ km)
Ceiling: ceiling and visibility are OK
Clouds: unknown
Weather: no significant weather observed at this time

METAR text: LOWW 180920Z VRB02KT 9000 BKN300 04/01 Q1025 NOSIG
Conditions at: LOWW (VIENNA/SCHWECHAT, AT) observed 0920 UTC 18 February 2019
Temperature: 4.0°C (39°F)
Dewpoint: 1.0°C (34°F) [RH = 81%]
Pressure (altimeter): 30.27 inches Hg (1025.0 mb)
Winds: variable direction winds at 2 MPH (2 knots; 1.0 m/s)
Visibility: 6 miles ( 9 km)
Ceiling: 30000 feet AGL
Clouds: broken clouds at 30000 feet AGL
Weather: no significant weather observed at this time

METAR text: LOWW 180850Z VRB01KT 7000 BKN300 04/02 Q1025 NOSIG
Conditions at: LOWW (VIENNA/SCHWECHAT, AT) observed 0850 UTC 18 February 2019
Temperature: 4.0°C (39°F)
Dewpoint: 2.0°C (36°F) [RH = 87%]
Pressure (altimeter): 30.27 inches Hg (1025.0 mb)
Winds: variable direction winds at 1 MPH (1 knots; 0.5 m/s)
Visibility: 4 miles ( 7 km)
Ceiling: 30000 feet AGL
Clouds: broken clouds at 30000 feet AGL
Weather: no significant weather observed at this time

METAR text: LOWW 180820Z VRB02KT 3900 BR FEW001 BKN300 02/01 Q1025 BECMG 6000 NSW
Conditions at: LOWW (VIENNA/SCHWECHAT, AT) observed 0820 UTC 18 February 2019
Temperature: 2.0°C (36°F)
Dewpoint: 1.0°C (34°F) [RH = 93%]
Pressure (altimeter): 30.27 inches Hg (1025.0 mb)
Winds: variable direction winds at 2 MPH (2 knots; 1.0 m/s)
Visibility: 2.42 miles (3.89 km)
Ceiling: 30000 feet AGL
Clouds: few clouds at 100 feet AGL
broken clouds at 30000 feet AGL
Weather: BR  (mist)

METAR text: LOWW 180750Z VRB02KT 2500 0100S R16/P1500U R29/P1500U BCFG FEW000 SCT001 BKN300 M00/M00 Q1025 BECMG 4000 BR
Conditions at: LOWW (VIENNA/SCHWECHAT, AT) observed 0750 UTC 18 February 2019
Temperature: 0.0°C (32°F)
Dewpoint: 0.0°C (32°F) [RH = 100%]
Pressure (altimeter): 30.27 inches Hg (1025.0 mb)
Winds: variable direction winds at 2 MPH (2 knots; 1.0 m/s)
Visibility: 1.55 miles (2.49 km)
Ceiling: 30000 feet AGL
Clouds: few clouds at 0 feet AGL
scattered clouds at 100 feet AGL
broken clouds at 30000 feet AGL
Weather: BCFG  (patches of fog)

METAR text: LOWW 180720Z 16003KT 1200 R16/0275N R29/1500U FZBCFG SCT000 BKN300 M02/M02 Q1025 TEMPO 0400 FZFG
Conditions at: LOWW (VIENNA/SCHWECHAT, AT) observed 0720 UTC 18 February 2019
Temperature: -2.0°C (28°F)
Dewpoint: -2.0°C (28°F) [RH = 100%]
Pressure (altimeter): 30.27 inches Hg (1025.0 mb)
Winds: from the SSE (160 degrees) at 3 MPH (3 knots; 1.5 m/s)
Visibility: 0.75 miles (1.21 km)
Ceiling: 30000 feet AGL
Clouds: scattered clouds at 0 feet AGL
broken clouds at 30000 feet AGL
Weather: BCFG  (patches of fog)

METAR text: LOWW 180650Z 14003KT 0150 R16/0200N R29/0150N FZPRFG SCT000 M03/M03 Q1025 TEMPO 0400 BKN001
Conditions at: LOWW (VIENNA/SCHWECHAT, AT) observed 0650 UTC 18 February 2019
Temperature: -3.0°C (27°F)
Dewpoint: -3.0°C (27°F) [RH = 100%]
Pressure (altimeter): 30.27 inches Hg (1025.0 mb)
Winds: from the SE (140 degrees) at 3 MPH (3 knots; 1.5 m/s)
Visibility: 0.09 miles (0.14 km)
Ceiling: at least 12,000 feet AGL
Clouds: scattered clouds at 0 feet AGL
Weather: PRFG  (partial fog)

METAR text: LOWW 180620Z 14002KT 0200 R16/0150N R29/0900U FZPRFG FEW000 BKN001 M03/M04 Q1025 TEMPO 0500 SCT001
Conditions at: LOWW (VIENNA/SCHWECHAT, AT) observed 0620 UTC 18 February 2019
Temperature: -3.0°C (27°F)
Dewpoint: -4.0°C (25°F) [RH = 93%]
Pressure (altimeter): 30.27 inches Hg (1025.0 mb)
Winds: from the SE (140 degrees) at 2 MPH (2 knots; 1.0 m/s)
Visibility: 0.12 miles (0.19 km)
Ceiling: 100 feet AGL
Clouds: few clouds at 0 feet AGL
broken clouds at 100 feet AGL
Weather: PRFG  (partial fog)

METAR text: LOWW 180550Z VRB01KT 0300 R16/0150N R29/0325N FZFG FEW000 SCT001 M03/M03 Q1024 BECMG BKN001
Conditions at: LOWW (VIENNA/SCHWECHAT, AT) observed 0550 UTC 18 February 2019
Temperature: -3.0°C (27°F)
Dewpoint: -3.0°C (27°F) [RH = 100%]
Pressure (altimeter): 30.24 inches Hg (1024.0 mb)
Winds: variable direction winds at 1 MPH (1 knots; 0.5 m/s)
Visibility: 0.19 miles (0.31 km)
Ceiling: at least 12,000 feet AGL
Clouds: few clouds at 0 feet AGL
scattered clouds at 100 feet AGL
Weather: FZFG  (freezing fog)

METAR text: LOWW 180520Z 02002KT 4000 0150N R29/P1500D FZBCFG SCT001 SCT300 M02/M02 Q1025 BECMG 0200 FZFG BKN001
Conditions at: LOWW (VIENNA/SCHWECHAT, AT) observed 0520 UTC 18 February 2019
Temperature: -2.0°C (28°F)
Dewpoint: -2.0°C (28°F) [RH = 100%]
Pressure (altimeter): 30.27 inches Hg (1025.0 mb)
Winds: from the NNE (20 degrees) at 2 MPH (2 knots; 1.0 m/s)
Visibility: 2.49 miles (4.01 km)
Ceiling: at least 12,000 feet AGL
Clouds: scattered clouds at 100 feet AGL
scattered clouds at 30000 feet AGL
Weather: BCFG  (patches of fog)

METAR text: LOWW 180450Z 31002KT 4000 0500E FZBCFG FEW001 SCT300 M02/M03 Q1024 BECMG 0500 FZFG
Conditions at: LOWW (VIENNA/SCHWECHAT, AT) observed 0450 UTC 18 February 2019
Temperature: -2.0°C (28°F)
Dewpoint: -3.0°C (27°F) [RH = 93%]
Pressure (altimeter): 30.24 inches Hg (1024.0 mb)
Winds: from the NW (310 degrees) at 2 MPH (2 knots; 1.0 m/s)
Visibility: 2.49 miles (4.01 km)
Ceiling: at least 12,000 feet AGL
Clouds: few clouds at 100 feet AGL
scattered clouds at 30000 feet AGL
Weather: BCFG  (patches of fog)

METAR text: LOWW 180420Z VRB01KT 3000 0500S R29/P1500D FZBCFG FEW001 SCT300 M03/M04 Q1024 BECMG 0500 FZFG
Conditions at: LOWW (VIENNA/SCHWECHAT, AT) observed 0420 UTC 18 February 2019
Temperature: -3.0°C (27°F)
Dewpoint: -4.0°C (25°F) [RH = 93%]
Pressure (altimeter): 30.24 inches Hg (1024.0 mb)
Winds: variable direction winds at 1 MPH (1 knots; 0.5 m/s)
Visibility: 1.86 miles (2.99 km)
Ceiling: at least 12,000 feet AGL
Clouds: few clouds at 100 feet AGL
scattered clouds at 30000 feet AGL
Weather: BCFG  (patches of fog)

METAR text: LOWW 180350Z 18002KT 4000 1000E R29/P1500U FZBCFG FEW001 SCT300 M03/M04 Q1024 BECMG 0500 FZFG
Conditions at: LOWW (VIENNA/SCHWECHAT, AT) observed 0350 UTC 18 February 2019
Temperature: -3.0°C (27°F)
Dewpoint: -4.0°C (25°F) [RH = 93%]
Pressure (altimeter): 30.24 inches Hg (1024.0 mb)
Winds: from the S (180 degrees) at 2 MPH (2 knots; 1.0 m/s)
Visibility: 2.49 miles (4.01 km)
Ceiling: at least 12,000 feet AGL
Clouds: few clouds at 100 feet AGL
scattered clouds at 30000 feet AGL
Weather: BCFG  (patches of fog)

METAR text: LOWW 180320Z 18002KT 5000 1000E FZBCFG FEW001 SCT300 M03/M04 Q1024 BECMG 0500 FZFG
Conditions at: LOWW (VIENNA/SCHWECHAT, AT) observed 0320 UTC 18 February 2019
Temperature: -3.0°C (27°F)
Dewpoint: -4.0°C (25°F) [RH = 93%]
Pressure (altimeter): 30.24 inches Hg (1024.0 mb)
Winds: from the S (180 degrees) at 2 MPH (2 knots; 1.0 m/s)
Visibility: 3 miles ( 5 km)
Ceiling: at least 12,000 feet AGL
Clouds: few clouds at 100 feet AGL
scattered clouds at 30000 feet AGL
Weather: BCFG  (patches of fog)

METAR text: LOWW 180250Z 17004KT 6000 SCT300 M02/M04 Q1024 BECMG 3000 FZBCFG
Conditions at: LOWW (VIENNA/SCHWECHAT, AT) observed 0250 UTC 18 February 2019
Temperature: -2.0°C (28°F)
Dewpoint: -4.0°C (25°F) [RH = 86%]
Pressure (altimeter): 30.24 inches Hg (1024.0 mb)
Winds: from the S (170 degrees) at 5 MPH (4 knots; 2.1 m/s)
Visibility: 4 miles ( 6 km)
Ceiling: at least 12,000 feet AGL
Clouds: scattered clouds at 30000 feet AGL
Weather: no significant weather observed at this time

METAR text: LOWW 180220Z 16004KT 6000 SCT300 M02/M03 Q1024 NOSIG
Conditions at: LOWW (VIENNA/SCHWECHAT, AT) observed 0220 UTC 18 February 2019
Temperature: -2.0°C (28°F)
Dewpoint: -3.0°C (27°F) [RH = 93%]
Pressure (altimeter): 30.24 inches Hg (1024.0 mb)
Winds: from the SSE (160 degrees) at 5 MPH (4 knots; 2.1 m/s)
Visibility: 4 miles ( 6 km)
Ceiling: at least 12,000 feet AGL
Clouds: scattered clouds at 30000 feet AGL
Weather: no significant weather observed at this time

METAR text: LOWW 180150Z VRB01KT 6000 NSC M02/M04 Q1025 BECMG 4000 BR
Conditions at: LOWW (VIENNA/SCHWECHAT, AT) observed 0150 UTC 18 February 2019
Temperature: -2.0°C (28°F)
Dewpoint: -4.0°C (25°F) [RH = 86%]
Pressure (altimeter): 30.27 inches Hg (1025.0 mb)
Winds: variable direction winds at 1 MPH (1 knots; 0.5 m/s)
Visibility: 4 miles ( 6 km)
Ceiling: at least 12,000 feet AGL
Clouds: sky clear below 12,000 feet AGL
Weather: no significant weather observed at this time

METAR text: LOWW 180120Z VRB01KT 6000 NSC M01/M03 Q1025 BECMG 4000 BR
Conditions at: LOWW (VIENNA/SCHWECHAT, AT) observed 0120 UTC 18 February 2019
Temperature: -1.0°C (30°F)
Dewpoint: -3.0°C (27°F) [RH = 86%]
Pressure (altimeter): 30.27 inches Hg (1025.0 mb)
Winds: variable direction winds at 1 MPH (1 knots; 0.5 m/s)
Visibility: 4 miles ( 6 km)
Ceiling: at least 12,000 feet AGL
Clouds: sky clear below 12,000 feet AGL
Weather: no significant weather observed at this time

METAR text: LOWW 180050Z VRB02KT 6000 NSC M01/M03 Q1025 NOSIG
Conditions at: LOWW (VIENNA/SCHWECHAT, AT) observed 0050 UTC 18 February 2019
Temperature: -1.0°C (30°F)
Dewpoint: -3.0°C (27°F) [RH = 86%]
Pressure (altimeter): 30.27 inches Hg (1025.0 mb)
Winds: variable direction winds at 2 MPH (2 knots; 1.0 m/s)
Visibility: 4 miles ( 6 km)
Ceiling: at least 12,000 feet AGL
Clouds: sky clear below 12,000 feet AGL
Weather: no significant weather observed at this time

METAR text: LOWW 180020Z 26003KT 7000 NSC M00/M03 Q1025 NOSIG
Conditions at: LOWW (VIENNA/SCHWECHAT, AT) observed 0020 UTC 18 February 2019
Temperature: 0.0°C (32°F)
Dewpoint: -3.0°C (27°F) [RH = 80%]
Pressure (altimeter): 30.27 inches Hg (1025.0 mb)
Winds: from the W (260 degrees) at 3 MPH (3 knots; 1.5 m/s)
Visibility: 4 miles ( 7 km)
Ceiling: at least 12,000 feet AGL
Clouds: sky clear below 12,000 feet AGL
Weather: no significant weather observed at this time

METAR text: LOWW 172350Z VRB01KT 6000 NSC 00/M01 Q1025 NOSIG
Conditions at: LOWW (VIENNA/SCHWECHAT, AT) observed 2350 UTC 17 February 2019
Temperature: 0.0°C (32°F)
Dewpoint: -1.0°C (30°F) [RH = 93%]
Pressure (altimeter): 30.27 inches Hg (1025.0 mb)
Winds: variable direction winds at 1 MPH (1 knots; 0.5 m/s)
Visibility: 4 miles ( 6 km)
Ceiling: at least 12,000 feet AGL
Clouds: sky clear below 12,000 feet AGL
Weather: no significant weather observed at this time

METAR text: LOWW 172320Z 20005KT 6000 NSC M00/M02 Q1025 NOSIG
Conditions at: LOWW (VIENNA/SCHWECHAT, AT) observed 2320 UTC 17 February 2019
Temperature: 0.0°C (32°F)
Dewpoint: -2.0°C (28°F) [RH = 86%]
Pressure (altimeter): 30.27 inches Hg (1025.0 mb)
Winds: from the SSW (200 degrees) at 6 MPH (5 knots; 2.6 m/s)
Visibility: 4 miles ( 6 km)
Ceiling: at least 12,000 feet AGL
Clouds: sky clear below 12,000 feet AGL
Weather: no significant weather observed at this time

METAR text: LOWW 172250Z 16004KT 6000 NSC 01/M01 Q1025 NOSIG
Conditions at: LOWW (VIENNA/SCHWECHAT, AT) observed 2250 UTC 17 February 2019
Temperature: 1.0°C (34°F)
Dewpoint: -1.0°C (30°F) [RH = 86%]
Pressure (altimeter): 30.27 inches Hg (1025.0 mb)
Winds: from the SSE (160 degrees) at 5 MPH (4 knots; 2.1 m/s)
Visibility: 4 miles ( 6 km)
Ceiling: at least 12,000 feet AGL
Clouds: sky clear below 12,000 feet AGL
Weather: no significant weather observed at this time

METAR text: LOWW 172220Z 17004KT 7000 NSC 02/M00 Q1025 NOSIG
Conditions at: LOWW (VIENNA/SCHWECHAT, AT) observed 2220 UTC 17 February 2019
Temperature: 2.0°C (36°F)
Dewpoint: 0.0°C (32°F) [RH = 87%]
Pressure (altimeter): 30.27 inches Hg (1025.0 mb)
Winds: from the S (170 degrees) at 5 MPH (4 knots; 2.1 m/s)
Visibility: 4 miles ( 7 km)
Ceiling: at least 12,000 feet AGL
Clouds: sky clear below 12,000 feet AGL
Weather: no significant weather observed at this time

METAR text: LOWW 172150Z 17004KT 7000 NSC 01/M01 Q1025 NOSIG
Conditions at: LOWW (VIENNA/SCHWECHAT, AT) observed 2150 UTC 17 February 2019
Temperature: 1.0°C (34°F)
Dewpoint: -1.0°C (30°F) [RH = 86%]
Pressure (altimeter): 30.27 inches Hg (1025.0 mb)
Winds: from the S (170 degrees) at 5 MPH (4 knots; 2.1 m/s)
Visibility: 4 miles ( 7 km)
Ceiling: at least 12,000 feet AGL
Clouds: sky clear below 12,000 feet AGL
Weather: no significant weather observed at this time

METAR text: LOWW 172120Z 16003KT 9000 NSC 02/M00 Q1026 NOSIG
Conditions at: LOWW (VIENNA/SCHWECHAT, AT) observed 2120 UTC 17 February 2019
Temperature: 2.0°C (36°F)
Dewpoint: 0.0°C (32°F) [RH = 87%]
Pressure (altimeter): 30.30 inches Hg (1026.0 mb)
Winds: from the SSE (160 degrees) at 3 MPH (3 knots; 1.5 m/s)
Visibility: 6 miles ( 9 km)
Ceiling: at least 12,000 feet AGL
Clouds: sky clear below 12,000 feet AGL
Weather: no significant weather observed at this time

METAR text: LOWW 172050Z 19005KT 160V220 CAVOK 03/M00 Q1026 NOSIG
Conditions at: LOWW (VIENNA/SCHWECHAT, AT) observed 2050 UTC 17 February 2019
Temperature: 3.0°C (37°F)
Dewpoint: 0.0°C (32°F) [RH = 81%]
Pressure (altimeter): 30.30 inches Hg (1026.0 mb)
Winds: from the S (190 degrees) at 6 MPH (5 knots; 2.6 m/s)
Visibility: 6 or more miles (10+ km)
Ceiling: ceiling and visibility are OK
Clouds: unknown
Weather: no significant weather observed at this time

METAR text: LOWW 172020Z 17004KT CAVOK 03/M00 Q1026 NOSIG
Conditions at: LOWW (VIENNA/SCHWECHAT, AT) observed 2020 UTC 17 February 2019
Temperature: 3.0°C (37°F)
Dewpoint: 0.0°C (32°F) [RH = 81%]
Pressure (altimeter): 30.30 inches Hg (1026.0 mb)
Winds: from the S (170 degrees) at 5 MPH (4 knots; 2.1 m/s)
Visibility: 6 or more miles (10+ km)
Ceiling: ceiling and visibility are OK
Clouds: unknown
Weather: no significant weather observed at this time

METAR text: LOWW 171950Z 17005KT CAVOK 04/00 Q1025 NOSIG
Conditions at: LOWW (VIENNA/SCHWECHAT, AT) observed 1950 UTC 17 February 2019
Temperature: 4.0°C (39°F)
Dewpoint: 0.0°C (32°F) [RH = 75%]
Pressure (altimeter): 30.27 inches Hg (1025.0 mb)
Winds: from the S (170 degrees) at 6 MPH (5 knots; 2.6 m/s)
Visibility: 6 or more miles (10+ km)
Ceiling: ceiling and visibility are OK
Clouds: unknown
Weather: no significant weather observed at this time

METAR text: LOWW 171920Z VRB02KT CAVOK 04/01 Q1025 NOSIG
Conditions at: LOWW (VIENNA/SCHWECHAT, AT) observed 1920 UTC 17 February 2019
Temperature: 4.0°C (39°F)
Dewpoint: 1.0°C (34°F) [RH = 81%]
Pressure (altimeter): 30.27 inches Hg (1025.0 mb)
Winds: variable direction winds at 2 MPH (2 knots; 1.0 m/s)
Visibility: 6 or more miles (10+ km)
Ceiling: ceiling and visibility are OK
Clouds: unknown
Weather: no significant weather observed at this time

METAR text: LOWW 171850Z 15003KT CAVOK 02/M00 Q1025 NOSIG
Conditions at: LOWW (VIENNA/SCHWECHAT, AT) observed 1850 UTC 17 February 2019
Temperature: 2.0°C (36°F)
Dewpoint: 0.0°C (32°F) [RH = 87%]
Pressure (altimeter): 30.27 inches Hg (1025.0 mb)
Winds: from the SSE (150 degrees) at 3 MPH (3 knots; 1.5 m/s)
Visibility: 6 or more miles (10+ km)
Ceiling: ceiling and visibility are OK
Clouds: unknown
Weather: no significant weather observed at this time

METAR text: LOWW 171820Z 14002KT CAVOK 03/01 Q1025 NOSIG
Conditions at: LOWW (VIENNA/SCHWECHAT, AT) observed 1820 UTC 17 February 2019
Temperature: 3.0°C (37°F)
Dewpoint: 1.0°C (34°F) [RH = 87%]
Pressure (altimeter): 30.27 inches Hg (1025.0 mb)
Winds: from the SE (140 degrees) at 2 MPH (2 knots; 1.0 m/s)
Visibility: 6 or more miles (10+ km)
Ceiling: ceiling and visibility are OK
Clouds: unknown
Weather: no significant weather observed at this time

METAR text: LOWW 171750Z 12003KT CAVOK 05/02 Q1025 NOSIG
Conditions at: LOWW (VIENNA/SCHWECHAT, AT) observed 1750 UTC 17 February 2019
Temperature: 5.0°C (41°F)
Dewpoint: 2.0°C (36°F) [RH = 81%]
Pressure (altimeter): 30.27 inches Hg (1025.0 mb)
Winds: from the ESE (120 degrees) at 3 MPH (3 knots; 1.5 m/s)
Visibility: 6 or more miles (10+ km)
Ceiling: ceiling and visibility are OK
Clouds: unknown
Weather: no significant weather observed at this time

METAR text: LOWW 171720Z 11003KT CAVOK 06/02 Q1025 NOSIG
Conditions at: LOWW (VIENNA/SCHWECHAT, AT) observed 1720 UTC 17 February 2019
Temperature: 6.0°C (43°F)
Dewpoint: 2.0°C (36°F) [RH = 75%]
Pressure (altimeter): 30.27 inches Hg (1025.0 mb)
Winds: from the ESE (110 degrees) at 3 MPH (3 knots; 1.5 m/s)
Visibility: 6 or more miles (10+ km)
Ceiling: ceiling and visibility are OK
Clouds: unknown
Weather: no significant weather observed at this time

Forecast for: LOWW (VIENNA/SCHWECHAT, AT)
Text: TAF LOWW 190215Z 1903/2009 12005KT CAVOK TX10/1914Z TNM00/1906Z
Forecast period: 0300 UTC 19 February 2019 to 0900 UTC 20 February 2019
Forecast type: FROM: standard forecast or significant change
Winds: from the ESE (120 degrees) at 6 MPH (5 knots; 2.6 m/s)
Visibility: 6 or more miles 10+ km)
Ceiling: unknown
Clouds: missing
Weather: no significant weather forecast for this period
Text: BECMG 1903/1905 VRB02KT 0700 FZFG SCT001
Forecast period: 0300 to 0900 UTC 19 February 2019
Forecast type: BECOMING: Conditions expected to become as follows by 0500 UTC 19 February 2019
Winds: variable direction winds at 2 MPH (2 knots; 1.0 m/s)
Visibility: 0.43 miles (0.69 km)
Ceiling: at least 12,000 feet AGL
Clouds: scattered clouds at 100 feet AGL
Weather: FZFG  (freezing fog)
Text: TEMPO 1905/1908 0200 VV001
Forecast period: 0500 to 0800 UTC 19 February 2019
Forecast type: TEMPORARY: The following changes expected for less than half the time period
Visibility: 0.12 miles (0.19 km)
Ceiling: indefinite ceiling with vertical visibility of 100 feet AGL
Clouds: obscured sky
Weather: no significant weather forecast for this period
Text: BECMG 1909/1911 5000 BR NSC
Forecast period: 0900 to 1100 UTC 19 February 2019
Forecast type: BECOMING: Conditions expected to become as follows by 1100 UTC 19 February 2019
Winds: variable direction winds at 2 MPH (2 knots; 1.0 m/s)
Visibility: 3 miles (5 km)
Ceiling: unknown
Clouds: missing
Weather: BR  (mist)
Text: BECMG 1911/1913 29007KT CAVOK
Forecast period: 1100 to 2300 UTC 19 February 2019
Forecast type: BECOMING: Conditions expected to become as follows by 1300 UTC 19 February 2019
Winds: from the WNW (290 degrees) at 8 MPH (7 knots; 3.6 m/s)
Visibility: 6 or more miles 10+ km)
Ceiling: unknown
Clouds: missing
Weather: NSW  (no significant weather)
Text: BECMG 1923/2001 30012KT 9999 BKN050
Forecast period: 2300 UTC 19 February 2019 to 0400 UTC 20 February 2019
Forecast type: BECOMING: Conditions expected to become as follows by 0100 UTC 20 February 2019
Winds: from the WNW (300 degrees) at 14 MPH (12 knots; 6.2 m/s)
Visibility: 6 or more miles 10+ km)
Ceiling: 5000 feet AGL
Clouds: broken clouds at 5000 feet AGL
Weather: NSW  (no significant weather)
Text: BECMG 2004/2007 SCT050
Forecast period: 0400 to 0900 UTC 20 February 2019
Forecast type: BECOMING: Conditions expected to become as follows by 0700 UTC 20 February 2019
Winds: from the WNW (300 degrees) at 14 MPH (12 knots; 6.2 m/s)
Visibility: 6 or more miles 10+ km)
Ceiling: at least 12,000 feet AGL
Clouds: scattered clouds at 5000 feet AGL
Weather: NSW  (no significant weather)
Text: TEMPO 2004/2009 30015G25KT
Forecast period: 0400 to 0900 UTC 20 February 2019
Forecast type: TEMPORARY: The following changes expected for less than half the time period
Winds: from the WNW (300 degrees) at 17 MPH (15 knots; 7.7 m/s)
gusting to 29 MPH (25 knots; 12.9 m/s)
Visibility: missing
Ceiling: unknown
Clouds: missing
Weather: no significant weather forecast for this period